BAW4C RJTT-RJBB
Flight info
| Callsign | BAW4C |
|---|---|
| Flight time | 1h 5m |
| Altitude | 30000 |
| Route | LAXAS Y56 TOHME Y54 KOHWA Y544 DUBKA |
| Aircraft | A320/M-SDE3FGHIRWY/LB1 |
Departure
| Time | 2026-05-06 14:33 |
|---|---|
| Airport | Tokyo Haneda International Airport (RJTT) |
Arrival
| Time | 2026-05-06 15:38 |
|---|---|
| Airport | Kansai International Airport (RJBB) |
| Time | Latitude | Longitude | Altitude | Speed | Heading |
|---|---|---|---|---|---|
| 2026-05-06 14:16 | 35.54841 | 139.77168 | 23 ft | 0 kts | 329° |
| 2026-05-06 14:25 | 35.54837 | 139.77171 | 23 ft | 4 kts | 330° |
| 2026-05-06 14:25 | 35.54812 | 139.77185 | 23 ft | 4 kts | 345° |
| 2026-05-06 14:26 | 35.54787 | 139.77189 | 23 ft | 4 kts | 16° |
| 2026-05-06 14:26 | 35.54771 | 139.77178 | 23 ft | 0 kts | 58° |
| 2026-05-06 14:29 | 35.54773 | 139.77181 | 23 ft | 2 kts | 58° |
| 2026-05-06 14:29 | 35.54795 | 139.77225 | 23 ft | 9 kts | 58° |
| 2026-05-06 14:29 | 35.54834 | 139.77295 | 23 ft | 11 kts | 43° |
| 2026-05-06 14:29 | 35.54911 | 139.77293 | 23 ft | 14 kts | 331° |
| 2026-05-06 14:30 | 35.55005 | 139.77226 | 23 ft | 17 kts | 329° |
| 2026-05-06 14:30 | 35.55112 | 139.77148 | 24 ft | 19 kts | 329° |
| 2026-05-06 14:30 | 35.55232 | 139.77063 | 23 ft | 21 kts | 332° |
| 2026-05-06 14:30 | 35.55366 | 139.76970 | 23 ft | 23 kts | 329° |
| 2026-05-06 14:31 | 35.55479 | 139.76904 | 23 ft | 15 kts | 359° |
| 2026-05-06 14:31 | 35.55546 | 139.76949 | 24 ft | 12 kts | 36° |
| 2026-05-06 14:31 | 35.55618 | 139.77012 | 23 ft | 14 kts | 35° |
| 2026-05-06 14:31 | 35.55659 | 139.77049 | 25 ft | 2 kts | 38° |
| 2026-05-06 14:32 | 35.55676 | 139.77093 | 25 ft | 12 kts | 86° |
| 2026-05-06 14:32 | 35.55610 | 139.77186 | 26 ft | 1 kts | 150° |
| 2026-05-06 14:32 | 35.55609 | 139.77187 | 25 ft | 3 kts | 150° |
| 2026-05-06 14:32 | 35.55385 | 139.77344 | 28 ft | 73 kts | 150° |
| 2026-05-06 14:33 | 35.54772 | 139.77775 | 27 ft | 127 kts | 150° |
| 2026-05-06 14:33 | 35.53884 | 139.78398 | 148 ft | 159 kts | 151° |
| 2026-05-06 14:33 | 35.52918 | 139.79062 | 743 ft | 160 kts | 152° |
| 2026-05-06 14:33 | 35.51946 | 139.79751 | 1361 ft | 163 kts | 150° |
| 2026-05-06 14:34 | 35.50974 | 139.80521 | 1877 ft | 169 kts | 151° |
| 2026-05-06 14:34 | 35.49978 | 139.81320 | 2418 ft | 173 kts | 152° |
| 2026-05-06 14:34 | 35.48967 | 139.82144 | 2952 ft | 176 kts | 152° |
| 2026-05-06 14:34 | 35.47940 | 139.82991 | 3511 ft | 180 kts | 152° |
| 2026-05-06 14:35 | 35.46887 | 139.83867 | 4008 ft | 186 kts | 152° |
| 2026-05-06 14:35 | 35.45788 | 139.84726 | 4541 ft | 188 kts | 161° |
| 2026-05-06 14:35 | 35.44548 | 139.85187 | 5087 ft | 187 kts | 175° |
| 2026-05-06 14:35 | 35.43259 | 139.85360 | 5650 ft | 186 kts | 183° |
| 2026-05-06 14:36 | 35.41974 | 139.85275 | 6248 ft | 184 kts | 197° |
| 2026-05-06 14:36 | 35.40848 | 139.84584 | 6818 ft | 182 kts | 215° |
| 2026-05-06 14:36 | 35.39816 | 139.83605 | 7143 ft | 198 kts | 223° |
| 2026-05-06 14:36 | 35.38741 | 139.82390 | 7395 ft | 223 kts | 224° |
| 2026-05-06 14:37 | 35.37556 | 139.81054 | 7755 ft | 246 kts | 223° |
| 2026-05-06 14:37 | 35.36238 | 139.79626 | 8367 ft | 257 kts | 222° |
| 2026-05-06 14:37 | 35.34860 | 139.78194 | 9171 ft | 262 kts | 221° |
| 2026-05-06 14:37 | 35.33443 | 139.76772 | 10002 ft | 265 kts | 220° |
| 2026-05-06 14:38 | 35.31966 | 139.75321 | 10420 ft | 283 kts | 220° |
| 2026-05-06 14:38 | 35.30370 | 139.73751 | 10621 ft | 306 kts | 220° |
| 2026-05-06 14:38 | 35.28678 | 139.72012 | 10768 ft | 329 kts | 221° |
| 2026-05-06 14:38 | 35.26899 | 139.70138 | 11065 ft | 344 kts | 222° |
| 2026-05-06 14:39 | 35.25075 | 139.68205 | 11650 ft | 350 kts | 222° |
| 2026-05-06 14:39 | 35.23222 | 139.66250 | 12265 ft | 354 kts | 222° |
| 2026-05-06 14:39 | 35.21345 | 139.64282 | 12933 ft | 357 kts | 222° |
| 2026-05-06 14:39 | 35.19451 | 139.62303 | 13575 ft | 360 kts | 222° |
| 2026-05-06 14:40 | 35.17535 | 139.60307 | 14172 ft | 364 kts | 222° |
| 2026-05-06 14:40 | 35.15604 | 139.58297 | 14739 ft | 366 kts | 223° |
| 2026-05-06 14:40 | 35.13660 | 139.56274 | 15311 ft | 368 kts | 223° |
| 2026-05-06 14:40 | 35.11705 | 139.54239 | 15887 ft | 370 kts | 223° |
| 2026-05-06 14:41 | 35.09777 | 139.52147 | 16452 ft | 371 kts | 228° |
| 2026-05-06 14:41 | 35.08181 | 139.49683 | 16972 ft | 371 kts | 240° |
| 2026-05-06 14:41 | 35.07045 | 139.46860 | 17527 ft | 372 kts | 251° |
| 2026-05-06 14:41 | 35.06399 | 139.43797 | 18103 ft | 374 kts | 259° |
| 2026-05-06 14:42 | 35.05896 | 139.40675 | 18645 ft | 376 kts | 258° |
| 2026-05-06 14:42 | 35.05379 | 139.37539 | 19152 ft | 378 kts | 258° |
| 2026-05-06 14:42 | 35.04851 | 139.34395 | 19672 ft | 379 kts | 257° |
| 2026-05-06 14:42 | 35.04318 | 139.31239 | 20196 ft | 380 kts | 257° |
| 2026-05-06 14:43 | 35.03785 | 139.28073 | 20706 ft | 381 kts | 257° |
| 2026-05-06 14:43 | 35.03253 | 139.24897 | 21200 ft | 383 kts | 256° |
| 2026-05-06 14:43 | 35.02718 | 139.21711 | 21672 ft | 384 kts | 256° |
| 2026-05-06 14:43 | 35.02181 | 139.18518 | 22127 ft | 385 kts | 256° |
| 2026-05-06 14:44 | 35.01641 | 139.15312 | 22567 ft | 386 kts | 256° |
| 2026-05-06 14:44 | 35.01099 | 139.12095 | 22999 ft | 388 kts | 255° |
| 2026-05-06 14:44 | 35.00554 | 139.08871 | 23447 ft | 389 kts | 256° |
| 2026-05-06 14:45 | 34.99463 | 139.02448 | 24380 ft | 385 kts | 256° |
| 2026-05-06 14:45 | 34.99104 | 139.00331 | 24623 ft | 386 kts | 256° |
| 2026-05-06 14:45 | 34.98708 | 138.97082 | 24956 ft | 390 kts | 263° |
| 2026-05-06 14:45 | 34.98484 | 138.92693 | 25415 ft | 392 kts | 263° |
| 2026-05-06 14:46 | 34.98369 | 138.90452 | 25650 ft | 393 kts | 263° |
| 2026-05-06 14:46 | 34.98197 | 138.87119 | 25961 ft | 395 kts | 263° |
| 2026-05-06 14:46 | 34.97966 | 138.82686 | 26380 ft | 397 kts | 263° |
| 2026-05-06 14:46 | 34.97791 | 138.79322 | 26815 ft | 397 kts | 263° |
| 2026-05-06 14:47 | 34.97672 | 138.77057 | 27173 ft | 395 kts | 263° |
| 2026-05-06 14:47 | 34.97496 | 138.73729 | 27701 ft | 393 kts | 263° |
| 2026-05-06 14:47 | 34.97319 | 138.70413 | 28214 ft | 391 kts | 263° |
| 2026-05-06 14:47 | 34.97143 | 138.67114 | 28731 ft | 389 kts | 263° |
| 2026-05-06 14:48 | 34.96967 | 138.63833 | 29233 ft | 387 kts | 263° |
| 2026-05-06 14:48 | 34.96790 | 138.60560 | 29696 ft | 387 kts | 263° |
| 2026-05-06 14:48 | 34.96613 | 138.57332 | 30058 ft | 387 kts | 263° |
| 2026-05-06 14:49 | 34.96254 | 138.50808 | 30155 ft | 385 kts | 263° |
| 2026-05-06 14:49 | 34.95897 | 138.44312 | 30136 ft | 383 kts | 263° |
| 2026-05-06 14:50 | 34.95534 | 138.37827 | 30133 ft | 384 kts | 263° |
| 2026-05-06 14:50 | 34.95163 | 138.31331 | 30132 ft | 384 kts | 263° |
| 2026-05-06 14:51 | 34.94790 | 138.24836 | 30125 ft | 384 kts | 263° |
| 2026-05-06 14:51 | 34.94414 | 138.18341 | 30140 ft | 384 kts | 263° |
| 2026-05-06 14:52 | 34.94037 | 138.11829 | 30142 ft | 385 kts | 263° |
| 2026-05-06 14:52 | 34.93656 | 138.05314 | 30130 ft | 386 kts | 263° |
| 2026-05-06 14:53 | 34.93271 | 137.98789 | 30136 ft | 386 kts | 263° |
| 2026-05-06 14:53 | 34.92878 | 137.92260 | 30127 ft | 386 kts | 263° |
| 2026-05-06 14:54 | 34.92483 | 137.85734 | 30133 ft | 386 kts | 263° |
| 2026-05-06 14:54 | 34.92086 | 137.79199 | 30109 ft | 387 kts | 263° |
| 2026-05-06 14:55 | 34.91680 | 137.72655 | 30134 ft | 388 kts | 263° |
| 2026-05-06 14:55 | 34.90938 | 137.66178 | 30132 ft | 385 kts | 252° |
| 2026-05-06 14:56 | 34.89136 | 137.60083 | 30123 ft | 385 kts | 250° |
| 2026-05-06 14:56 | 34.87284 | 137.53955 | 30121 ft | 386 kts | 249° |
| 2026-05-06 14:57 | 34.85439 | 137.47811 | 30116 ft | 386 kts | 250° |
| 2026-05-06 14:57 | 34.83642 | 137.41647 | 30112 ft | 386 kts | 250° |
| 2026-05-06 14:58 | 34.81896 | 137.35462 | 30123 ft | 386 kts | 250° |
| 2026-05-06 14:58 | 34.80137 | 137.29282 | 30117 ft | 387 kts | 250° |
| 2026-05-06 14:59 | 34.78361 | 137.23108 | 30117 ft | 387 kts | 250° |
| 2026-05-06 14:59 | 34.76585 | 137.16932 | 30119 ft | 387 kts | 250° |
| 2026-05-06 15:00 | 34.74805 | 137.10757 | 30124 ft | 387 kts | 250° |
| 2026-05-06 15:00 | 34.73016 | 137.04593 | 30113 ft | 387 kts | 250° |
| 2026-05-06 15:01 | 34.71228 | 136.98430 | 30118 ft | 387 kts | 250° |
| 2026-05-06 15:01 | 34.69047 | 136.92444 | 30128 ft | 389 kts | 244° |
| 2026-05-06 15:02 | 34.66564 | 136.86593 | 30129 ft | 390 kts | 244° |
| 2026-05-06 15:02 | 34.64081 | 136.80738 | 30118 ft | 390 kts | 244° |
| 2026-05-06 15:03 | 34.61654 | 136.74851 | 30116 ft | 390 kts | 245° |
| 2026-05-06 15:03 | 34.59355 | 136.68936 | 30126 ft | 390 kts | 245° |
| 2026-05-06 15:04 | 34.57054 | 136.62976 | 30128 ft | 390 kts | 245° |
| 2026-05-06 15:04 | 34.54724 | 136.57028 | 30116 ft | 390 kts | 245° |
| 2026-05-06 15:05 | 34.52372 | 136.51071 | 30130 ft | 393 kts | 245° |
| 2026-05-06 15:05 | 34.50007 | 136.45099 | 30137 ft | 393 kts | 245° |
| 2026-05-06 15:06 | 34.47637 | 136.39124 | 30122 ft | 393 kts | 245° |
| 2026-05-06 15:06 | 34.45270 | 136.33140 | 30120 ft | 394 kts | 245° |
| 2026-05-06 15:07 | 34.42898 | 136.27143 | 30131 ft | 395 kts | 245° |
| 2026-05-06 15:07 | 34.40515 | 136.21142 | 30114 ft | 395 kts | 245° |
| 2026-05-06 15:08 | 34.38126 | 136.15145 | 30132 ft | 396 kts | 245° |
| 2026-05-06 15:08 | 34.35727 | 136.09142 | 30120 ft | 396 kts | 245° |
| 2026-05-06 15:09 | 34.33325 | 136.03134 | 30127 ft | 397 kts | 245° |
| 2026-05-06 15:09 | 34.30918 | 135.97129 | 30126 ft | 397 kts | 245° |
| 2026-05-06 15:10 | 34.28511 | 135.91116 | 30125 ft | 397 kts | 245° |
| 2026-05-06 15:10 | 34.26097 | 135.85096 | 30129 ft | 398 kts | 245° |
| 2026-05-06 15:11 | 34.23670 | 135.79076 | 30128 ft | 399 kts | 245° |
| 2026-05-06 15:11 | 34.21232 | 135.73045 | 30128 ft | 400 kts | 245° |
| 2026-05-06 15:12 | 34.18785 | 135.66990 | 30128 ft | 401 kts | 245° |
| 2026-05-06 15:12 | 34.16356 | 135.60972 | 30123 ft | 401 kts | 245° |
| 2026-05-06 15:13 | 34.13896 | 135.54921 | 29945 ft | 404 kts | 244° |
| 2026-05-06 15:13 | 34.12650 | 135.51856 | 28898 ft | 409 kts | 245° |
| 2026-05-06 15:13 | 34.11395 | 135.48764 | 27958 ft | 411 kts | 245° |
| 2026-05-06 15:13 | 34.10131 | 135.45651 | 26891 ft | 416 kts | 245° |
| 2026-05-06 15:14 | 34.08848 | 135.42498 | 25814 ft | 422 kts | 245° |
| 2026-05-06 15:14 | 34.07549 | 135.39304 | 24774 ft | 427 kts | 245° |
| 2026-05-06 15:14 | 34.06227 | 135.36066 | 23759 ft | 433 kts | 245° |
| 2026-05-06 15:14 | 34.04887 | 135.32790 | 22620 ft | 438 kts | 245° |
| 2026-05-06 15:15 | 34.03542 | 135.29504 | 21771 ft | 435 kts | 244° |
| 2026-05-06 15:15 | 34.02205 | 135.26245 | 20908 ft | 433 kts | 244° |
| 2026-05-06 15:15 | 34.00892 | 135.23041 | 20041 ft | 419 kts | 244° |
| 2026-05-06 15:15 | 33.99614 | 135.19922 | 19234 ft | 412 kts | 244° |
| 2026-05-06 15:16 | 33.98353 | 135.16844 | 18422 ft | 407 kts | 244° |
| 2026-05-06 15:16 | 33.97106 | 135.13807 | 17548 ft | 402 kts | 244° |
| 2026-05-06 15:16 | 33.95862 | 135.10774 | 16739 ft | 404 kts | 244° |
| 2026-05-06 15:16 | 33.94618 | 135.07747 | 15926 ft | 403 kts | 244° |
| 2026-05-06 15:17 | 33.93373 | 135.04723 | 15149 ft | 402 kts | 243° |
| 2026-05-06 15:17 | 33.92131 | 135.01709 | 14383 ft | 402 kts | 243° |
| 2026-05-06 15:17 | 33.90890 | 134.98701 | 13562 ft | 401 kts | 243° |
| 2026-05-06 15:17 | 33.89666 | 134.95731 | 12754 ft | 387 kts | 243° |
| 2026-05-06 15:18 | 33.88490 | 134.92883 | 12101 ft | 374 kts | 243° |
| 2026-05-06 15:18 | 33.87346 | 134.90119 | 11527 ft | 360 kts | 243° |
| 2026-05-06 15:18 | 33.86276 | 134.87536 | 11331 ft | 330 kts | 243° |
| 2026-05-06 15:18 | 33.85293 | 134.85165 | 11205 ft | 304 kts | 243° |
| 2026-05-06 15:19 | 33.84383 | 134.82975 | 11081 ft | 282 kts | 243° |
| 2026-05-06 15:19 | 33.83525 | 134.80912 | 10956 ft | 271 kts | 243° |
| 2026-05-06 15:19 | 33.82687 | 134.78897 | 10714 ft | 268 kts | 243° |
| 2026-05-06 15:19 | 33.81859 | 134.76903 | 10471 ft | 265 kts | 243° |
| 2026-05-06 15:20 | 33.81043 | 134.74935 | 10238 ft | 262 kts | 243° |
| 2026-05-06 15:20 | 33.80238 | 134.72991 | 10061 ft | 257 kts | 243° |
| 2026-05-06 15:20 | 33.79441 | 134.71071 | 10005 ft | 256 kts | 243° |
| 2026-05-06 15:20 | 33.78642 | 134.69150 | 10017 ft | 257 kts | 243° |
| 2026-05-06 15:21 | 33.77841 | 134.67229 | 10010 ft | 257 kts | 243° |
| 2026-05-06 15:21 | 33.77039 | 134.65309 | 10010 ft | 257 kts | 243° |
| 2026-05-06 15:21 | 33.76236 | 134.63389 | 10010 ft | 257 kts | 243° |
| 2026-05-06 15:21 | 33.75587 | 134.61397 | 10012 ft | 257 kts | 261° |
| 2026-05-06 15:22 | 33.75743 | 134.59264 | 10013 ft | 261 kts | 289° |
| 2026-05-06 15:22 | 33.76777 | 134.57471 | 10013 ft | 267 kts | 319° |
| 2026-05-06 15:22 | 33.78390 | 134.56406 | 10013 ft | 271 kts | 334° |
| 2026-05-06 15:22 | 33.80115 | 134.55484 | 9994 ft | 272 kts | 336° |
| 2026-05-06 15:23 | 33.81960 | 134.55027 | 9856 ft | 271 kts | 360° |
| 2026-05-06 15:23 | 33.83776 | 134.55500 | 9730 ft | 266 kts | 21° |
| 2026-05-06 15:23 | 33.85443 | 134.56373 | 9601 ft | 257 kts | 22° |
| 2026-05-06 15:23 | 33.87056 | 134.57227 | 9467 ft | 249 kts | 22° |
| 2026-05-06 15:24 | 33.88618 | 134.58057 | 9338 ft | 242 kts | 22° |
| 2026-05-06 15:24 | 33.90133 | 134.58861 | 9208 ft | 234 kts | 22° |
| 2026-05-06 15:24 | 33.91608 | 134.59644 | 9080 ft | 230 kts | 22° |
| 2026-05-06 15:24 | 33.93074 | 134.60422 | 8955 ft | 229 kts | 22° |
| 2026-05-06 15:25 | 33.94526 | 134.61189 | 8825 ft | 229 kts | 22° |
| 2026-05-06 15:25 | 33.95981 | 134.61958 | 8695 ft | 229 kts | 22° |
| 2026-05-06 15:25 | 33.97437 | 134.62728 | 8576 ft | 229 kts | 22° |
| 2026-05-06 15:25 | 33.98891 | 134.63496 | 8450 ft | 227 kts | 22° |
| 2026-05-06 15:26 | 34.00338 | 134.64259 | 8328 ft | 227 kts | 22° |
| 2026-05-06 15:26 | 34.01778 | 134.65020 | 8203 ft | 225 kts | 22° |
| 2026-05-06 15:26 | 34.03211 | 134.65778 | 8079 ft | 225 kts | 22° |
| 2026-05-06 15:26 | 34.04642 | 134.66532 | 7956 ft | 224 kts | 22° |
| 2026-05-06 15:27 | 34.06069 | 134.67285 | 7834 ft | 224 kts | 22° |
| 2026-05-06 15:27 | 34.07493 | 134.68038 | 7704 ft | 223 kts | 22° |
| 2026-05-06 15:27 | 34.08912 | 134.68790 | 7590 ft | 223 kts | 22° |
| 2026-05-06 15:27 | 34.10331 | 134.69540 | 7462 ft | 222 kts | 22° |
| 2026-05-06 15:28 | 34.11710 | 134.70376 | 7345 ft | 222 kts | 29° |
| 2026-05-06 15:28 | 34.13008 | 134.71386 | 7222 ft | 222 kts | 35° |
| 2026-05-06 15:28 | 34.14213 | 134.72546 | 7102 ft | 222 kts | 41° |
| 2026-05-06 15:28 | 34.15301 | 134.73826 | 6987 ft | 221 kts | 47° |
| 2026-05-06 15:29 | 34.16289 | 134.75247 | 6868 ft | 221 kts | 53° |
| 2026-05-06 15:29 | 34.17161 | 134.76801 | 6747 ft | 220 kts | 59° |
| 2026-05-06 15:29 | 34.17895 | 134.78395 | 6629 ft | 220 kts | 62° |
| 2026-05-06 15:29 | 34.18629 | 134.80012 | 6513 ft | 219 kts | 62° |
| 2026-05-06 15:30 | 34.19363 | 134.81626 | 6391 ft | 219 kts | 62° |
| 2026-05-06 15:30 | 34.20094 | 134.83236 | 6262 ft | 218 kts | 62° |
| 2026-05-06 15:30 | 34.20821 | 134.84844 | 6135 ft | 218 kts | 62° |
| 2026-05-06 15:30 | 34.21546 | 134.86446 | 6010 ft | 217 kts | 62° |
| 2026-05-06 15:31 | 34.22267 | 134.88038 | 5890 ft | 216 kts | 62° |
| 2026-05-06 15:31 | 34.22986 | 134.89628 | 5763 ft | 215 kts | 62° |
| 2026-05-06 15:31 | 34.23700 | 134.91207 | 5635 ft | 214 kts | 62° |
| 2026-05-06 15:32 | 34.25207 | 134.94385 | 4798 ft | 218 kts | 54° |
| 2026-05-06 15:32 | 34.26129 | 134.95814 | 4310 ft | 213 kts | 51° |
| 2026-05-06 15:32 | 34.27046 | 134.97171 | 4006 ft | 200 kts | 51° |
| 2026-05-06 15:32 | 34.27875 | 134.98394 | 4001 ft | 178 kts | 51° |
| 2026-05-06 15:33 | 34.28626 | 134.99505 | 4001 ft | 169 kts | 51° |
| 2026-05-06 15:33 | 34.29413 | 135.00670 | 4004 ft | 183 kts | 51° |
| 2026-05-06 15:33 | 34.30220 | 135.01864 | 3846 ft | 183 kts | 51° |
| 2026-05-06 15:33 | 34.31025 | 135.03056 | 3637 ft | 182 kts | 52° |
| 2026-05-06 15:34 | 34.31826 | 135.04242 | 3406 ft | 182 kts | 52° |
| 2026-05-06 15:34 | 34.32626 | 135.05427 | 3171 ft | 181 kts | 52° |
| 2026-05-06 15:34 | 34.33419 | 135.06603 | 2936 ft | 179 kts | 52° |
| 2026-05-06 15:34 | 34.34204 | 135.07766 | 2719 ft | 178 kts | 52° |
| 2026-05-06 15:35 | 34.34986 | 135.08926 | 2462 ft | 177 kts | 52° |
| 2026-05-06 15:35 | 34.35764 | 135.10079 | 2218 ft | 176 kts | 52° |
| 2026-05-06 15:35 | 34.36535 | 135.11224 | 1987 ft | 175 kts | 52° |
| 2026-05-06 15:35 | 34.37300 | 135.12360 | 1742 ft | 173 kts | 51° |
| 2026-05-06 15:36 | 34.38059 | 135.13487 | 1514 ft | 171 kts | 52° |
| 2026-05-06 15:36 | 34.38553 | 135.14220 | 1368 ft | 168 kts | 52° |
| 2026-05-06 15:36 | 34.39256 | 135.15264 | 1149 ft | 151 kts | 52° |
| 2026-05-06 15:36 | 34.39897 | 135.16217 | 960 ft | 142 kts | 52° |
| 2026-05-06 15:37 | 34.40511 | 135.17129 | 780 ft | 138 kts | 51° |
| 2026-05-06 15:37 | 34.41112 | 135.18023 | 603 ft | 136 kts | 51° |
| 2026-05-06 15:37 | 34.41706 | 135.18907 | 421 ft | 135 kts | 51° |
| 2026-05-06 15:37 | 34.42296 | 135.19789 | 248 ft | 134 kts | 51° |
| 2026-05-06 15:38 | 34.42883 | 135.20666 | 98 ft | 135 kts | 51° |
| 2026-05-06 15:38 | 34.43459 | 135.21536 | 27 ft | 124 kts | 51° |
| 2026-05-06 15:38 | 34.43910 | 135.22193 | 28 ft | 77 kts | 50° |
| 2026-05-06 15:38 | 34.44139 | 135.22538 | 27 ft | 35 kts | 52° |
| 2026-05-06 15:39 | 34.44316 | 135.22817 | 30 ft | 46 kts | 57° |
| 2026-05-06 15:39 | 34.44381 | 135.23095 | 25 ft | 24 kts | 78° |
| 2026-05-06 15:39 | 34.44307 | 135.23229 | 24 ft | 21 kts | 140° |
| 2026-05-06 15:39 | 34.44196 | 135.23299 | 23 ft | 16 kts | 201° |
| 2026-05-06 15:40 | 34.44113 | 135.23200 | 23 ft | 18 kts | 232° |
| 2026-05-06 15:40 | 34.44032 | 135.23075 | 23 ft | 9 kts | 236° |
| 2026-05-06 15:40 | 34.43993 | 135.23001 | 23 ft | 12 kts | 237° |
| 2026-05-06 15:40 | 34.43940 | 135.22914 | 23 ft | 14 kts | 230° |
| 2026-05-06 15:41 | 34.43858 | 135.22796 | 23 ft | 22 kts | 230° |
| 2026-05-06 15:41 | 34.43758 | 135.22702 | 23 ft | 17 kts | 183° |
| 2026-05-06 15:41 | 34.43673 | 135.22797 | 23 ft | 19 kts | 133° |
| 2026-05-06 15:41 | 34.43588 | 135.22884 | 24 ft | 14 kts | 141° |
| 2026-05-06 15:42 | 34.43526 | 135.22958 | 23 ft | 8 kts | 92° |
| 2026-05-06 15:42 | 34.43559 | 135.22998 | 23 ft | 7 kts | 48° |
| 2026-05-06 15:42 | 34.43583 | 135.23032 | 23 ft | 0 kts | 50° |